Time;durP1;ratioP1;P1;durP2;ratioP2;P2;SDS_P1;SDS_P2;PMS_P1;PMS_P2;Temp;Humidity;BMP_temperature;BMP_pressure;BME280_temperature;BME280_humidity;BME280_pressure;Samples;Min_cycle;Max_cycle;Signal;HPM_P1;HPM_P2
2024/03/25 00:00:11;;;;;;;12.80;9.80;;;;;;;5.75;100.00;99384.41;111015;1234;76226;-65
2024/03/25 00:02:39;;;;;;;12.80;9.80;;;;;;;5.77;100.00;99381.88;111011;1236;71432;-65
2024/03/25 00:05:09;;;;;;;15.40;9.80;;;;;;;5.82;100.00;99379.08;111049;1234;72475;-65
2024/03/25 00:07:37;;;;;;;14.10;9.80;;;;;;;5.85;100.00;99375.11;111001;1233;61805;-65
2024/03/25 00:10:06;;;;;;;13.10;9.50;;;;;;;5.85;100.00;99377.92;111020;1233;62525;-65
2024/03/25 00:12:33;;;;;;;14.80;10.30;;;;;;;5.84;100.00;99376.54;111017;1237;73611;-64
2024/03/25 00:15:00;;;;;;;13.20;10.00;;;;;;;5.84;100.00;99374.04;111044;1234;72734;-64
2024/03/25 00:17:27;;;;;;;14.10;10.20;;;;;;;5.86;100.00;99370.88;111009;1234;73177;-65
2024/03/25 00:19:54;;;;;;;15.80;10.80;;;;;;;5.90;100.00;99372.49;111071;1233;62006;-67
2024/03/25 00:22:21;;;;;;;13.90;10.10;;;;;;;5.91;100.00;99367.20;110997;1233;61987;-66
2024/03/25 00:24:48;;;;;;;12.90;10.30;;;;;;;5.92;100.00;99371.88;111007;1234;75113;-66
2024/03/25 00:27:15;;;;;;;15.20;10.40;;;;;;;5.93;100.00;99375.45;110980;1237;71199;-66
2024/03/25 00:29:41;;;;;;;14.20;10.30;;;;;;;5.93;100.00;99377.80;110825;1233;71993;-64
2024/03/25 00:32:08;;;;;;;14.60;10.50;;;;;;;5.94;100.00;99374.14;111031;1233;61943;-64
2024/03/25 00:34:36;;;;;;;14.80;10.50;;;;;;;5.94;100.00;99372.02;111025;1237;61908;-68
2024/03/25 00:37:06;;;;;;;15.30;10.30;;;;;;;5.93;100.00;99369.27;111039;1233;75853;-64
2024/03/25 00:39:34;;;;;;;15.00;10.20;;;;;;;5.90;100.00;99362.75;111082;1236;70260;-65
2024/03/25 00:42:01;;;;;;;13.80;10.40;;;;;;;5.89;100.00;99364.85;111040;1234;71589;-64
2024/03/25 00:44:28;;;;;;;13.70;10.10;;;;;;;5.88;100.00;99365.90;111018;1233;62365;-64
2024/03/25 00:46:55;;;;;;;15.60;11.10;;;;;;;5.87;100.00;99364.58;111037;1233;62027;-63
2024/03/25 00:49:22;;;;;;;16.70;10.90;;;;;;;5.86;100.00;99360.19;111044;1234;75973;-64
2024/03/25 00:51:49;;;;;;;14.90;10.60;;;;;;;5.85;100.00;99362.61;111092;1233;71592;-65
2024/03/25 00:54:16;;;;;;;14.90;10.60;;;;;;;5.85;100.00;99369.00;111103;1233;72929;-65
2024/03/25 00:56:44;;;;;;;13.30;9.80;;;;;;;5.84;100.00;99375.16;111068;1234;61909;-64
2024/03/25 00:59:10;;;;;;;14.70;10.50;;;;;;;5.81;100.00;99374.61;111076;1237;61906;-65
2024/03/25 01:01:37;;;;;;;14.30;10.70;;;;;;;5.74;100.00;99374.13;111075;1233;75897;-65
2024/03/25 01:04:04;;;;;;;13.10;10.20;;;;;;;5.68;100.00;99372.50;111128;1234;73633;-65
2024/03/25 01:06:32;;;;;;;14.40;10.20;;;;;;;5.64;100.00;99366.52;111052;1233;73254;-66
2024/03/25 01:08:58;;;;;;;16.60;10.60;;;;;;;5.60;100.00;99347.70;110850;1234;62227;-65
2024/03/25 01:11:26;;;;;;;12.80;9.20;;;;;;;5.57;100.00;99339.14;111014;1235;61874;-65
2024/03/25 01:13:55;;;;;;;17.30;11.00;;;;;;;5.52;100.00;99336.61;111009;1232;74431;-65
2024/03/25 01:16:24;;;;;;;15.90;11.10;;;;;;;5.41;100.00;99339.65;111094;1236;71555;-65
2024/03/25 01:18:58;;;;;;;15.80;11.10;;;;;;;5.27;100.00;99344.83;110860;1234;71267;-65
2024/03/25 01:21:30;;;;;;;18.70;12.10;;;;;;;5.20;100.00;99347.95;110612;1233;508439;-66
2024/03/25 01:23:57;;;;;;;15.80;11.30;;;;;;;5.17;100.00;99345.39;111040;1232;61859;-66
2024/03/25 01:26:27;;;;;;;14.30;10.80;;;;;;;5.16;100.00;99348.06;111046;1233;75882;-64
2024/03/25 01:28:58;;;;;;;14.40;10.80;;;;;;;5.15;100.00;99344.83;110810;1238;71377;-65
2024/03/25 01:31:39;;;;;;;15.20;10.60;;;;;;;5.13;100.00;99341.60;110975;1233;72461;-65
2024/03/25 01:35:30;;;;;;;14.30;10.50;;;;;;;5.13;100.00;99344.70;110833;1233;62128;-64
2024/03/25 01:37:57;;;;;;;13.30;9.90;;;;;;;5.12;100.00;99337.55;110994;1234;61917;-66
2024/03/25 01:40:24;;;;;;;16.40;10.70;;;;;;;5.11;100.00;99336.75;111075;1236;73095;-65
2024/03/25 01:42:56;;;;;;;14.00;10.40;;;;;;;5.09;100.00;99334.50;111087;1233;72399;-64
2024/03/25 01:45:24;;;;;;;13.70;9.90;;;;;;;5.10;100.00;99332.39;111081;1234;72400;-66
2024/03/25 01:47:51;;;;;;;17.00;11.50;;;;;;;5.11;100.00;99333.45;111103;1234;61988;-65
2024/03/25 01:50:18;;;;;;;15.70;10.60;;;;;;;5.09;100.00;99335.35;111132;1233;61885;-66
2024/03/25 01:52:45;;;;;;;15.60;10.80;;;;;;;5.09;100.00;99335.13;111085;1233;75353;-65
2024/03/25 01:55:16;;;;;;;16.50;11.10;;;;;;;5.08;100.00;99336.13;111075;1233;73258;-65
2024/03/25 01:57:43;;;;;;;16.50;11.20;;;;;;;5.02;100.00;99335.34;111009;1232;72320;-64
2024/03/25 02:00:11;;;;;;;15.00;11.30;;;;;;;4.94;100.00;99340.71;111039;1234;62060;-65
2024/03/25 02:02:47;;;;;;;16.10;11.50;;;;;;;4.91;100.00;99342.01;111010;1234;62132;-65
2024/03/25 02:05:15;;;;;;;15.90;11.70;;;;;;;4.90;100.00;99342.38;111061;1234;76022;-67
2024/03/25 02:07:42;;;;;;;17.00;12.00;;;;;;;4.89;100.00;99344.27;110804;1234;72461;-65
2024/03/25 02:10:10;;;;;;;15.50;11.90;;;;;;;4.89;100.00;99344.67;111059;1233;72927;-65
2024/03/25 02:12:37;;;;;;;16.20;11.80;;;;;;;4.90;100.00;99347.91;110852;1234;62053;-65
2024/03/25 02:15:05;;;;;;;15.90;11.50;;;;;;;4.90;100.00;99351.51;110715;1233;61882;-65
2024/03/25 02:17:32;;;;;;;19.00;13.00;;;;;;;4.91;100.00;99355.83;111061;1234;75948;-65
2024/03/25 02:19:59;;;;;;;16.70;12.90;;;;;;;4.91;100.00;99357.94;111064;1234;73312;-65
2024/03/25 02:22:26;;;;;;;18.80;13.60;;;;;;;4.87;100.00;99354.23;111049;1234;71479;-66
2024/03/25 02:24:53;;;;;;;18.00;13.50;;;;;;;4.88;100.00;99357.49;110832;1233;61987;-66
2024/03/25 02:27:20;;;;;;;17.90;13.60;;;;;;;4.90;100.00;99351.26;110815;1234;61849;-65
2024/03/25 02:29:47;;;;;;;17.20;13.20;;;;;;;4.95;100.00;99343.10;111059;1233;75244;-65
2024/03/25 02:32:13;;;;;;;19.20;14.00;;;;;;;5.02;100.00;99338.88;111043;1234;71960;-65
2024/03/25 02:34:44;;;;;;;18.40;13.60;;;;;;;5.10;100.00;99344.41;111021;1234;72337;-65
2024/03/25 02:37:11;;;;;;;17.80;13.90;;;;;;;5.17;100.00;99342.58;111069;1233;62029;-65
2024/03/25 02:39:37;;;;;;;18.90;14.50;;;;;;;5.22;100.00;99338.11;111022;1234;61942;-65
2024/03/25 02:42:05;;;;;;;18.90;13.70;;;;;;;5.22;100.00;99343.04;111031;1237;75702;-66
2024/03/25 02:44:31;;;;;;;18.70;14.50;;;;;;;5.23;100.00;99347.66;110887;1238;71347;-65
2024/03/25 02:46:59;;;;;;;24.40;15.00;;;;;;;5.23;100.00;99353.12;110777;1233;72837;-65
2024/03/25 02:49:26;;;;;;;20.70;14.10;;;;;;;5.20;100.00;99360.13;110886;1233;62016;-65
2024/03/25 02:51:53;;;;;;;22.10;14.80;;;;;;;5.13;100.00;99362.86;111087;1233;61980;-65
2024/03/25 02:54:20;;;;;;;20.80;14.10;;;;;;;5.09;100.00;99365.25;111090;1234;73503;-65
2024/03/25 02:56:47;;;;;;;21.30;15.00;;;;;;;5.10;100.00;99370.81;111051;1234;72057;-65
2024/03/25 02:59:13;;;;;;;19.10;13.70;;;;;;;5.10;100.00;99374.97;111053;1233;72330;-66
2024/03/25 03:01:40;;;;;;;20.80;14.20;;;;;;;5.09;100.00;99379.55;111056;1233;61990;-65
2024/03/25 03:04:07;;;;;;;16.90;12.80;;;;;;;5.11;100.00;99383.38;111103;1233;61862;-70
2024/03/25 03:06:34;;;;;;;18.40;13.00;;;;;;;5.14;100.00;99389.14;111085;1235;75709;-68
2024/03/25 03:09:01;;;;;;;18.90;13.40;;;;;;;5.17;100.00;99389.63;111108;1236;72621;-65
2024/03/25 03:11:28;;;;;;;16.90;12.70;;;;;;;5.21;100.00;99394.23;111151;1236;72575;-66
2024/03/25 03:13:55;;;;;;;18.40;13.40;;;;;;;5.24;100.00;99402.52;111063;1234;62030;-66
2024/03/25 03:16:22;;;;;;;17.50;12.90;;;;;;;5.22;100.00;99409.02;111150;1233;61921;-65
2024/03/25 03:18:49;;;;;;;18.00;13.00;;;;;;;5.16;100.00;99418.37;111046;1234;75952;-65
2024/03/25 03:21:16;;;;;;;19.40;13.20;;;;;;;5.09;100.00;99424.17;111157;1234;72920;-66
2024/03/25 03:23:43;;;;;;;19.10;13.40;;;;;;;5.01;100.00;99434.25;111025;1234;70366;-65
2024/03/25 03:26:10;;;;;;;22.30;16.00;;;;;;;4.93;100.00;99438.45;111050;1233;61695;-65
2024/03/25 03:28:37;;;;;;;29.60;19.20;;;;;;;4.91;100.00;99435.98;111094;1233;61957;-68
2024/03/25 03:31:04;;;;;;;26.00;17.50;;;;;;;4.92;100.00;99431.76;111072;1234;75242;-67
2024/03/25 03:33:31;;;;;;;22.00;16.00;;;;;;;4.97;100.00;99427.05;111071;1233;73502;-67
2024/03/25 03:35:58;;;;;;;21.50;14.60;;;;;;;5.04;100.00;99418.03;111096;1234;72625;-66
2024/03/25 03:38:25;;;;;;;17.30;12.70;;;;;;;5.09;100.00;99403.70;111083;1234;61729;-65
2024/03/25 03:41:02;;;;;;;16.40;12.50;;;;;;;5.10;100.00;99393.63;111031;1236;62129;-65
2024/03/25 03:43:29;;;;;;;14.80;11.40;;;;;;;5.06;100.00;99394.19;110842;1233;75375;-65
2024/03/25 03:45:56;;;;;;;15.70;11.60;;;;;;;5.04;100.00;99386.75;111046;1234;73207;-65
2024/03/25 03:48:22;;;;;;;17.40;12.60;;;;;;;5.00;100.00;99386.70;111064;1233;73345;-65
2024/03/25 03:50:49;;;;;;;18.20;13.80;;;;;;;4.98;100.00;99396.32;111058;1233;61943;-65
2024/03/25 03:53:17;;;;;;;18.50;13.90;;;;;;;5.01;100.00;99407.16;111006;1233;62128;-64
2024/03/25 03:55:57;;;;;;;20.20;15.00;;;;;;;5.05;100.00;99410.26;111085;1236;75123;-64
2024/03/25 03:58:24;;;;;;;19.20;13.60;;;;;;;5.12;100.00;99416.16;111044;1234;72702;-64
2024/03/25 04:00:52;;;;;;;18.90;13.60;;;;;;;5.17;100.00;99408.11;111053;1237;72466;-64
2024/03/25 04:03:19;;;;;;;19.50;13.40;;;;;;;5.18;100.00;99404.04;111052;1232;62109;-65
2024/03/25 04:05:46;;;;;;;19.00;13.30;;;;;;;5.18;100.00;99407.48;111068;1233;61881;-66
2024/03/25 04:08:13;;;;;;;18.60;13.30;;;;;;;5.20;100.00;99412.64;111077;1237;75885;-64
2024/03/25 04:10:40;;;;;;;22.90;13.00;;;;;;;5.21;100.00;99407.67;111065;1234;71627;-65
2024/03/25 04:13:11;;;;;;;17.20;12.40;;;;;;;5.22;100.00;99404.98;111007;1234;71103;-65
2024/03/25 04:15:38;;;;;;;17.30;12.00;;;;;;;5.24;100.00;99403.00;111074;1232;60744;-66
2024/03/25 04:18:05;;;;;;;19.00;13.20;;;;;;;5.25;100.00;99404.54;111060;1234;61856;-66
2024/03/25 04:20:39;;;;;;;17.20;12.20;;;;;;;5.28;100.00;99404.89;111040;1234;75197;-65
2024/03/25 04:23:09;;;;;;;19.60;14.00;;;;;;;5.28;100.00;99400.27;111136;1234;72620;-65
2024/03/25 04:25:39;;;;;;;19.80;13.30;;;;;;;5.28;100.00;99397.27;111047;1237;71296;-66
2024/03/25 04:28:06;;;;;;;17.50;12.40;;;;;;;5.26;100.00;99400.73;111073;1233;62017;-66
2024/03/25 04:30:33;;;;;;;18.10;12.40;;;;;;;5.25;100.00;99400.45;111125;1234;61859;-65
2024/03/25 04:33:01;;;;;;;18.80;13.10;;;;;;;5.27;100.00;99397.73;111115;1236;75402;-65
2024/03/25 04:35:28;;;;;;;18.40;12.50;;;;;;;5.27;100.00;99394.45;111079;1233;72586;-65
2024/03/25 04:37:55;;;;;;;18.40;12.70;;;;;;;5.27;100.00;99388.14;111007;1234;73092;-64
2024/03/25 04:40:23;;;;;;;18.30;12.10;;;;;;;5.28;100.00;99387.52;111066;1235;61934;-65
2024/03/25 04:42:50;;;;;;;18.80;11.50;;;;;;;5.31;100.00;99389.19;111092;1237;61912;-65
2024/03/25 04:45:17;;;;;;;18.60;12.50;;;;;;;5.32;100.00;99391.25;111129;1235;74385;-65
2024/03/25 04:47:44;;;;;;;20.90;14.90;;;;;;;5.31;100.00;99392.58;110960;1234;72997;-66
2024/03/25 04:50:11;;;;;;;18.80;13.40;;;;;;;5.29;100.00;99388.69;111091;1234;71372;-65
2024/03/25 04:52:39;;;;;;;18.90;12.90;;;;;;;5.31;100.00;99382.36;111056;1236;62078;-65
2024/03/25 04:55:07;;;;;;;18.60;11.50;;;;;;;5.35;100.00;99370.38;111078;1234;61871;-66
2024/03/25 04:57:33;;;;;;;17.20;10.70;;;;;;;5.40;100.00;99369.26;111065;1234;75559;-64
2024/03/25 05:00:00;;;;;;;17.60;10.30;;;;;;;5.44;100.00;99374.42;111171;1236;71271;-66
2024/03/25 05:02:28;;;;;;;14.90;9.50;;;;;;;5.46;100.00;99373.27;111054;1233;73047;-67
2024/03/25 05:04:55;;;;;;;13.00;8.00;;;;;;;5.46;100.00;99368.56;111033;1234;62027;-66
2024/03/25 05:07:22;;;;;;;13.70;7.90;;;;;;;5.47;100.00;99366.92;111050;1234;62115;-66
2024/03/25 05:09:49;;;;;;;11.40;8.00;;;;;;;5.47;100.00;99369.58;111019;1234;75817;-66
2024/03/25 05:12:18;;;;;;;11.50;7.10;;;;;;;5.48;100.00;99362.33;111041;1236;73533;-65
2024/03/25 05:14:45;;;;;;;12.30;6.70;;;;;;;5.49;100.00;99360.59;111093;1234;73054;-65
2024/03/25 05:17:12;;;;;;;10.70;7.10;;;;;;;5.52;100.00;99361.73;111033;1237;61914;-65
2024/03/25 05:19:39;;;;;;;10.80;7.20;;;;;;;5.55;100.00;99359.30;110991;1234;61884;-65
2024/03/25 05:22:05;;;;;;;11.00;6.50;;;;;;;5.58;100.00;99357.32;111081;1235;75875;-65
2024/03/25 05:24:32;;;;;;;9.40;6.00;;;;;;;5.65;100.00;99361.83;111131;1237;71552;-65
2024/03/25 05:26:59;;;;;;;8.50;5.00;;;;;;;5.74;100.00;99365.70;111047;1236;71265;-65
2024/03/25 05:29:26;;;;;;;9.90;5.30;;;;;;;5.80;100.00;99364.65;111058;1232;62094;-65
2024/03/25 05:32:00;;;;;;;7.80;5.00;;;;;;;5.88;100.00;99360.55;111109;1234;61924;-65
2024/03/25 05:34:27;;;;;;;8.30;4.90;;;;;;;5.95;100.00;99361.64;111041;1234;75367;-65
2024/03/25 05:36:54;;;;;;;7.90;4.90;;;;;;;5.98;100.00;99365.38;111088;1235;72707;-66
2024/03/25 05:39:21;;;;;;;7.40;4.70;;;;;;;6.01;100.00;99364.44;111071;1232;71172;-67
2024/03/25 05:41:48;;;;;;;6.70;4.70;;;;;;;6.05;100.00;99366.30;111101;1233;62323;-65
2024/03/25 05:44:15;;;;;;;6.50;4.00;;;;;;;6.07;100.00;99369.30;110966;1234;60290;-65
2024/03/25 05:46:42;;;;;;;6.80;3.90;;;;;;;6.06;100.00;99364.63;111094;1235;74277;-64
2024/03/25 05:49:09;;;;;;;6.80;4.40;;;;;;;6.05;100.00;99354.38;111084;1237;71246;-66
2024/03/25 05:51:36;;;;;;;7.70;4.10;;;;;;;6.05;100.00;99349.08;111081;1234;70828;-65
2024/03/25 05:54:03;;;;;;;7.10;3.90;;;;;;;6.09;100.00;99350.96;111101;1234;62118;-65
2024/03/25 05:56:30;;;;;;;7.00;4.00;;;;;;;6.14;100.00;99354.64;111032;1233;62471;-65
2024/03/25 05:58:57;;;;;;;6.60;3.90;;;;;;;6.20;100.00;99359.02;111035;1234;75342;-65
2024/03/25 06:01:24;;;;;;;7.30;4.00;;;;;;;6.23;100.00;99367.73;111074;1235;72450;-65
2024/03/25 06:03:52;;;;;;;6.90;3.80;;;;;;;6.26;100.00;99371.79;111043;1234;71877;-65
2024/03/25 06:06:18;;;;;;;6.50;4.40;;;;;;;6.33;100.00;99372.73;110997;1232;61949;-65
2024/03/25 06:08:45;;;;;;;8.30;4.50;;;;;;;6.39;100.00;99365.06;111033;1232;61869;-65
2024/03/25 06:11:12;;;;;;;6.60;3.40;;;;;;;6.44;100.00;99368.21;111008;1234;75193;-66
2024/03/25 06:13:39;;;;;;;6.40;3.40;;;;;;;6.51;100.00;99373.19;111028;1235;71680;-65
2024/03/25 06:16:06;;;;;;;5.40;3.90;;;;;;;6.58;100.00;99369.49;111003;1235;72364;-64
2024/03/25 06:18:33;;;;;;;7.30;3.80;;;;;;;6.64;100.00;99368.51;111033;1235;61896;-65
2024/03/25 06:21:00;;;;;;;6.40;3.80;;;;;;;6.68;100.00;99366.29;111078;1233;61915;-64
2024/03/25 06:23:28;;;;;;;7.40;3.80;;;;;;;6.70;100.00;99367.14;111092;1234;75950;-65
2024/03/25 06:25:55;;;;;;;6.60;3.70;;;;;;;6.76;100.00;99370.30;111119;1234;73031;-65
2024/03/25 06:28:22;;;;;;;7.00;3.50;;;;;;;6.83;100.00;99367.72;111076;1234;71940;-64
2024/03/25 06:36:22;;;;;;;6.10;3.60;;;;;;;6.92;100.00;99390.48;110966;1234;76461;-65
2024/03/25 06:38:49;;;;;;;5.80;3.50;;;;;;;6.96;100.00;99388.84;111034;1234;72494;-65
2024/03/25 06:41:16;;;;;;;6.10;3.70;;;;;;;7.04;100.00;99389.06;110990;1235;73171;-64
2024/03/25 06:43:43;;;;;;;6.90;3.80;;;;;;;7.13;100.00;99395.25;111010;1236;61915;-65
2024/03/25 06:46:10;;;;;;;6.80;3.50;;;;;;;7.15;100.00;99401.95;111038;1236;61958;-65
2024/03/25 06:48:37;;;;;;;6.70;4.30;;;;;;;7.13;100.00;99399.50;111025;1236;75878;-65
2024/03/25 06:51:05;;;;;;;8.50;3.60;;;;;;;7.13;100.00;99401.93;111054;1234;73216;-64
2024/03/25 06:53:32;;;;;;;6.10;3.70;;;;;;;7.17;100.00;99402.59;111001;1235;73033;-65
2024/03/25 06:56:02;;;;;;;8.30;3.70;;;;;;;7.18;100.00;99406.90;110998;1234;62044;-65
2024/03/25 06:58:29;;;;;;;5.90;3.40;;;;;;;7.21;100.00;99403.11;111044;1233;60291;-66
2024/03/25 07:00:57;;;;;;;4.80;3.10;;;;;;;7.29;100.00;99400.11;111053;1233;73941;-66
2024/03/25 07:03:24;;;;;;;6.00;3.30;;;;;;;7.36;100.00;99397.15;111007;1233;72983;-65
2024/03/25 07:05:55;;;;;;;7.40;3.80;;;;;;;7.39;100.00;99393.91;111046;1235;73834;-67
2024/03/25 07:08:22;;;;;;;6.00;3.40;;;;;;;7.37;100.00;99388.81;110970;1233;62289;-67
2024/03/25 07:10:49;;;;;;;5.90;3.50;;;;;;;7.38;100.00;99393.75;111061;1235;61913;-65
2024/03/25 07:13:16;;;;;;;7.20;3.80;;;;;;;7.40;100.00;99400.39;111013;1234;75300;-64
2024/03/25 07:15:43;;;;;;;5.90;3.10;;;;;;;7.47;100.00;99396.90;111075;1234;72684;-64
2024/03/25 07:18:12;;;;;;;5.90;3.40;;;;;;;7.49;100.00;99393.02;111060;1235;71667;-65
2024/03/25 07:20:40;;;;;;;5.40;3.20;;;;;;;7.49;100.00;99394.02;111095;1233;61785;-65
2024/03/25 07:23:07;;;;;;;7.20;3.50;;;;;;;7.49;100.00;99398.06;111065;1237;61922;-64
2024/03/25 07:25:34;;;;;;;6.30;3.20;;;;;;;7.51;100.00;99403.11;111071;1233;76610;-66
2024/03/25 07:28:02;;;;;;;5.90;3.20;;;;;;;7.49;100.00;99409.44;111045;1237;72796;-65
2024/03/25 07:30:29;;;;;;;6.50;3.00;;;;;;;7.44;100.00;99409.06;111009;1235;72893;-65
2024/03/25 07:32:59;;;;;;;4.90;2.90;;;;;;;7.39;100.00;99404.21;111005;1237;62086;-66
2024/03/25 07:35:26;;;;;;;7.50;3.00;;;;;;;7.39;100.00;99405.55;111153;1234;61918;-65
2024/03/25 07:37:53;;;;;;;6.00;3.10;;;;;;;7.41;100.00;99410.29;111105;1236;75248;-65
2024/03/25 07:40:21;;;;;;;5.30;2.60;;;;;;;7.45;100.00;99415.44;111103;1236;72683;-66
2024/03/25 07:42:48;;;;;;;5.50;2.60;;;;;;;7.48;100.00;99420.96;111117;1235;73789;-66
2024/03/25 07:45:16;;;;;;;6.00;2.70;;;;;;;7.55;100.00;99419.05;111092;1233;62233;-66
2024/03/25 07:47:42;;;;;;;4.70;2.60;;;;;;;7.61;100.00;99424.59;110871;1235;59573;-64
2024/03/25 07:50:11;;;;;;;7.30;3.00;;;;;;;7.64;100.00;99416.79;111086;1234;76283;-65
2024/03/25 07:52:42;;;;;;;6.30;3.00;;;;;;;7.66;100.00;99412.69;111068;1235;73927;-65
2024/03/25 07:55:09;;;;;;;6.20;2.50;;;;;;;7.74;100.00;99414.49;111069;1236;71631;-67
2024/03/25 07:57:36;;;;;;;5.50;2.90;;;;;;;7.86;100.00;99417.84;110993;1235;62016;-66
2024/03/25 08:00:05;;;;;;;4.90;3.10;;;;;;;7.96;100.00;99420.92;110972;1235;61924;-66
2024/03/25 08:02:38;;;;;;;4.70;2.80;;;;;;;8.03;100.00;99420.59;111076;1233;74650;-67
2024/03/25 08:05:06;;;;;;;6.00;3.00;;;;;;;8.07;100.00;99420.48;111055;1236;71798;-66
2024/03/25 08:07:33;;;;;;;4.80;2.50;;;;;;;8.12;100.00;99419.14;111005;1235;73600;-66
2024/03/25 08:10:00;;;;;;;5.50;2.60;;;;;;;8.22;99.99;99416.90;110992;1235;62975;-64
2024/03/25 08:12:27;;;;;;;5.30;2.80;;;;;;;8.31;98.66;99417.14;111033;1235;61910;-65
2024/03/25 08:14:54;;;;;;;4.60;2.40;;;;;;;8.39;97.52;99419.44;111016;1235;75713;-64
2024/03/25 08:17:21;;;;;;;5.00;2.40;;;;;;;8.53;97.17;99424.58;111062;1236;71807;-65
2024/03/25 08:19:48;;;;;;;5.20;2.80;;;;;;;8.69;95.82;99421.75;111030;1234;73671;-65
2024/03/25 08:22:15;;;;;;;4.40;2.50;;;;;;;8.83;94.66;99426.39;111135;1233;61745;-66
2024/03/25 08:24:42;;;;;;;4.30;2.60;;;;;;;8.95;92.30;99426.80;111042;1233;61911;-66
2024/03/25 08:27:09;;;;;;;6.30;2.80;;;;;;;8.97;87.92;99427.70;110809;1237;75058;-66
2024/03/25 08:29:36;;;;;;;5.40;2.40;;;;;;;8.96;86.41;99426.38;112003;1234;72815;-66
2024/03/25 08:32:04;;;;;;;5.70;2.60;;;;;;;8.96;85.02;99422.34;110797;1236;72560;-66
2024/03/25 08:34:31;;;;;;;5.10;2.60;;;;;;;8.93;84.20;99413.52;110897;1236;62151;-66
2024/03/25 08:36:58;;;;;;;5.40;2.50;;;;;;;8.95;84.56;99406.84;110860;1232;61967;-66
2024/03/25 08:39:25;;;;;;;4.90;2.40;;;;;;;8.98;83.81;99407.30;110916;1234;74945;-65
2024/03/25 08:41:52;;;;;;;5.00;2.10;;;;;;;8.97;82.77;99410.66;110918;1237;72181;-65
2024/03/25 08:44:19;;;;;;;4.30;2.20;;;;;;;8.93;81.23;99409.08;111390;1234;73634;-65
2024/03/25 08:46:46;;;;;;;4.60;2.10;;;;;;;8.86;79.25;99413.55;110932;1236;61908;-65
2024/03/25 08:49:13;;;;;;;3.70;2.00;;;;;;;8.74;80.19;99415.93;110870;1232;62081;-64
2024/03/25 08:51:41;;;;;;;4.70;2.40;;;;;;;8.69;80.52;99418.13;110930;1237;74493;-65
2024/03/25 08:54:08;;;;;;;4.60;2.50;;;;;;;8.65;81.05;99414.21;110889;1236;74034;-65
2024/03/25 08:56:35;;;;;;;4.60;2.20;;;;;;;8.60;81.95;99413.48;110814;1235;72520;-66
2024/03/25 08:59:02;;;;;;;5.70;2.60;;;;;;;8.63;81.32;99419.70;110758;1235;62121;-64
2024/03/25 09:01:30;;;;;;;4.70;2.30;;;;;;;8.63;80.65;99420.45;110832;1234;61907;-68
2024/03/25 09:03:57;;;;;;;3.80;2.00;;;;;;;8.65;80.76;99419.42;110721;1241;75238;-64
2024/03/25 09:06:24;;;;;;;4.70;2.30;;;;;;;8.75;80.91;99416.98;110836;1236;72530;-65
2024/03/25 09:11:36;;;;;;;3.70;2.10;;;;;;;9.05;80.61;99405.88;110837;1233;62111;-66
2024/03/25 09:14:05;;;;;;;3.80;1.90;;;;;;;9.10;79.81;99403.62;110816;1232;61138;-66
2024/03/25 09:16:33;;;;;;;4.00;2.10;;;;;;;9.13;79.15;99400.83;112029;1234;76712;-66
2024/03/25 09:19:00;;;;;;;5.40;2.50;;;;;;;9.15;78.85;99402.41;111628;1236;72674;-66
2024/03/25 09:21:27;;;;;;;3.40;1.80;;;;;;;9.25;79.10;99392.65;110767;1237;72649;-65
2024/03/25 09:23:58;;;;;;;4.60;2.10;;;;;;;9.35;78.52;99390.45;110641;1235;62003;-66
2024/03/25 09:26:24;;;;;;;4.30;2.00;;;;;;;9.46;78.10;99388.73;110791;1232;61557;-65
2024/03/25 09:28:51;;;;;;;4.90;2.50;;;;;;;9.55;77.13;99389.52;110826;1235;75629;-66
2024/03/25 09:31:18;;;;;;;5.10;2.20;;;;;;;9.63;75.79;99385.25;110890;1234;73829;-64
2024/03/25 09:33:46;;;;;;;4.90;2.20;;;;;;;9.68;74.28;99386.86;110936;1237;71179;-65
2024/03/25 09:36:13;;;;;;;4.30;2.30;;;;;;;9.71;72.80;99388.48;110990;1234;61952;-67
2024/03/25 09:38:40;;;;;;;3.80;1.90;;;;;;;9.71;71.51;99390.84;110893;1234;61908;-66
2024/03/25 09:41:08;;;;;;;5.30;2.60;;;;;;;9.73;70.68;99391.77;110926;1236;76076;-66
2024/03/25 09:43:49;;;;;;;5.10;2.10;;;;;;;9.77;70.27;99390.41;110861;1234;71732;-65
2024/03/25 09:46:16;;;;;;;4.00;1.90;;;;;;;9.83;69.75;99383.69;110891;1235;73837;-67
2024/03/25 09:48:44;;;;;;;4.00;1.90;;;;;;;9.86;69.00;99381.98;110820;1235;61869;-66
2024/03/25 09:51:11;;;;;;;3.00;1.60;;;;;;;9.88;68.94;99376.98;110859;1234;62030;-66
2024/03/25 09:53:38;;;;;;;4.80;2.00;;;;;;;9.88;67.95;99374.09;110873;1233;75309;-65
2024/03/25 09:56:05;;;;;;;5.50;2.00;;;;;;;9.87;66.66;99374.73;110855;1236;71810;-64
2024/03/25 09:58:33;;;;;;;4.80;2.00;;;;;;;9.88;65.80;99377.98;110789;1235;74237;-64
2024/03/25 10:01:03;;;;;;;3.30;1.90;;;;;;;9.90;65.34;99384.27;110868;1235;62026;-65
2024/03/25 10:03:30;;;;;;;4.70;1.80;;;;;;;9.89;64.88;99380.16;110804;1233;61931;-64
2024/03/25 10:05:57;;;;;;;3.60;1.70;;;;;;;9.82;63.56;99377.40;110859;1234;76681;-65
2024/03/25 10:08:30;;;;;;;4.90;2.10;;;;;;;9.76;63.12;99374.69;110827;1235;74094;-64
2024/03/25 10:10:58;;;;;;;4.80;1.80;;;;;;;9.69;63.30;99377.20;112013;1233;73585;-65
2024/03/25 10:13:26;;;;;;;3.90;1.40;;;;;;;9.61;62.25;99381.04;111016;1235;61933;-66
2024/03/25 10:15:55;;;;;;;5.60;1.70;;;;;;;9.47;60.55;99378.84;110885;1233;61960;-65
2024/03/25 10:18:22;;;;;;;5.40;1.80;;;;;;;9.37;61.36;99376.80;110969;1238;75297;-64
2024/03/25 10:20:50;;;;;;;3.40;1.80;;;;;;;9.32;62.17;99369.42;111096;1234;71731;-65
2024/03/25 10:23:26;;;;;;;4.80;1.90;;;;;;;9.31;63.12;99367.45;111019;1233;72319;-65
2024/03/25 10:25:53;;;;;;;4.80;1.60;;;;;;;9.33;61.83;99363.61;111027;1234;62052;-69
2024/03/25 10:28:20;;;;;;;3.80;1.80;;;;;;;9.37;60.60;99363.69;111117;1234;61894;-65
2024/03/25 10:30:47;;;;;;;4.10;2.10;;;;;;;9.42;60.20;99358.75;111044;1236;73368;-65
2024/03/25 10:33:15;;;;;;;3.00;1.40;;;;;;;9.47;60.56;99359.67;110971;1235;73868;-65
2024/03/25 10:35:43;;;;;;;4.00;1.80;;;;;;;9.47;58.46;99358.07;110984;1234;73119;-67
2024/03/25 10:38:10;;;;;;;3.00;1.30;;;;;;;9.43;58.31;99358.52;110839;1238;61912;-65
2024/03/25 10:40:39;;;;;;;4.70;1.40;;;;;;;9.43;58.03;99356.88;110958;1234;61972;-67
2024/03/25 10:43:08;;;;;;;3.00;1.10;;;;;;;9.44;56.89;99354.52;111000;1236;76533;-67
2024/03/25 10:45:37;;;;;;;3.80;1.30;;;;;;;9.40;54.56;99352.05;111056;1234;72799;-63
2024/03/25 10:48:10;;;;;;;3.40;1.20;;;;;;;9.30;53.54;99354.84;110977;1235;73760;-65
2024/03/25 10:50:37;;;;;;;3.30;1.40;;;;;;;9.21;53.87;99350.59;110844;1234;59751;-65
2024/03/25 10:53:04;;;;;;;4.60;1.50;;;;;;;9.17;54.42;99349.96;110986;1235;62137;-66
2024/03/25 10:55:33;;;;;;;3.20;1.30;;;;;;;9.16;54.31;99345.98;110904;1235;76867;-67
2024/03/25 10:58:00;;;;;;;2.90;1.20;;;;;;;9.13;53.81;99346.27;111073;1235;72546;-65
2024/03/25 11:00:27;;;;;;;3.30;1.40;;;;;;;9.09;54.46;99346.83;111090;1236;73586;-65
2024/03/25 11:02:54;;;;;;;4.30;1.70;;;;;;;9.06;54.88;99346.89;111003;1237;61079;-66
2024/03/25 11:05:21;;;;;;;3.80;1.70;;;;;;;9.04;55.52;99347.34;111065;1233;61998;-64
2024/03/25 11:07:50;;;;;;;4.80;1.50;;;;;;;9.05;55.55;99343.82;111034;1235;75559;-67
2024/03/25 11:10:17;;;;;;;2.80;1.20;;;;;;;9.04;55.13;99341.05;110959;1238;72770;-67
2024/03/25 11:12:45;;;;;;;3.70;1.30;;;;;;;9.00;54.98;99340.34;111054;1235;73882;-66
2024/03/25 11:15:13;;;;;;;3.30;1.40;;;;;;;8.97;54.62;99337.20;111029;1234;62893;-67
2024/03/25 11:17:48;;;;;;;3.80;1.10;;;;;;;8.99;54.12;99339.81;111003;1235;61888;-64
2024/03/25 11:20:16;;;;;;;3.20;1.10;;;;;;;9.03;53.68;99340.96;111017;1234;76586;-65
2024/03/25 11:22:49;;;;;;;2.40;1.10;;;;;;;9.09;53.56;99339.95;111009;1234;72441;-64
2024/03/25 11:25:17;;;;;;;3.70;1.20;;;;;;;9.13;53.15;99341.10;111006;1236;72549;-63
2024/03/25 11:27:44;;;;;;;2.50;1.10;;;;;;;9.18;52.78;99343.69;110975;1235;62014;-67
2024/03/25 11:30:12;;;;;;;1.90;0.70;;;;;;;9.23;51.71;99331.77;111062;1235;61973;-67